METAR AND TAF INFORMATION
METAR FOR LIBP
ADDS - METARS form results

(2054 UTC 24 February 2020)
Data provider http://aviationweather.gov/metar/data/
 
Forecast for: LIBP (PESCARA , IT)
Text: TAF LIBP 241700Z 2418/2518 VRB05KT CAVOK
Forecast period: 1800 UTC 24 February 2020 to 1000 UTC 25 February 2020
Forecast type: FROM: standard forecast or significant change
Winds: variable direction winds at 6 MPH (5 knots; 2.6 m/s)
Visibility: 6 or more miles 10+ km)
Ceiling: unknown
Clouds: missing
Weather: NSW  (no significant weather)
Text: BECMG 2510/2512 04010KT
Forecast period: 1000 to 1800 UTC 25 February 2020
Forecast type: BECOMING: Conditions expected to become as follows by 1200 UTC 25 February 2020
Winds: from the NE (40 degrees) at 12 MPH (10 knots; 5.1 m/s)
Visibility: 6 or more miles 10+ km)
Ceiling: unknown
Clouds: missing
Weather: NSW  (no significant weather)

 AIRPORT MAP

 RUNWAY INFORMATION
Runway 04 Runway length 7933 ft Runway width 148 ft
Runway elevation 46 ft Runway displaced threshold 344 ft Runway heading 38
Runway 22 Runway length 7933 ft Runway width 148 ft
Runway elevation 27 ft Runway displaced threshold 617 ft Runway heading 218

 AIRPORT FREQUENCIES
Type APP Name APP Frequency 120.05 MHZ
Type TWR Name TWR Frequency 118.45 MHZ

 AIRPORT NEAR NAVIGATION AIDS
Type VOR-DME Name Pescara Frequency 115900 KHZ